Archival Weather

Granbury Rgnl

Granbury, Texas (KGDJ)

Report from: Monday, January 29, 2024 5:15 PM UTC
Current time: Tuesday, June 18, 2024 11:42 AM UTC

Current weather – Weather history – Daily summaries
Weather forecast

Temperature14.0°C (57.2°F)
Dew point5.0°C (41.0°F)
Winds 4 kts (2.1 m/s, 4.6 mph) Northeast (40°)
Visibility10 mi. (16.1 km)
Clouds Sky clear
Altimeter30.33 in.Hg (1027 mB)
Relative humidity55 %
Density altitude-456 ft. (-139 m)
Remarks Fully automated report
Automated weather observing station with precipitation discriminator
Flight conditions Visual Meteorological Conditions
Raw dataKGDJ 291715Z AUTO 04004KT 10SM CLR 14/05 A3033 RMK AO2 T01400050
An error has occurred. This application may no longer respond until reloaded. Reload 🗙